createdAt,value
2022-08-16T00:03:45.568Z,7.45
2022-08-16T00:08:49.106Z,7.13
2022-08-16T00:13:55.734Z,7.00
2022-08-16T00:18:59.545Z,7.07
2022-08-16T00:24:04.684Z,7.50
2022-08-16T00:29:10.298Z,7.07
2022-08-16T00:34:18.334Z,7.20
2022-08-16T00:39:22.112Z,7.65
2022-08-16T00:44:31.810Z,7.37
2022-08-16T00:49:39.489Z,7.63
2022-08-16T00:54:48.095Z,7.22
2022-08-16T00:59:59.049Z,7.88
2022-08-16T01:05:09.632Z,7.20
2022-08-16T01:10:16.158Z,8.00
2022-08-16T01:15:22.104Z,8.32
2022-08-16T01:20:34.049Z,7.82
2022-08-16T01:25:44.245Z,7.78
2022-08-16T01:30:53.546Z,8.00
2022-08-16T01:36:00.277Z,7.40
2022-08-16T01:41:08.479Z,8.10
2022-08-16T01:46:31.244Z,7.82
2022-08-16T01:51:44.480Z,7.40
2022-08-16T01:56:49.353Z,7.60
2022-08-16T02:01:59.735Z,7.25
2022-08-16T02:07:08.899Z,7.72
2022-08-16T02:12:42.078Z,7.55
2022-08-16T02:17:40.801Z,7.40
2022-08-16T02:22:44.342Z,6.70
2022-08-16T02:27:52.069Z,7.97
2022-08-16T02:32:56.012Z,6.80
2022-08-16T02:38:01.852Z,7.88
2022-08-16T02:43:14.114Z,7.18
2022-08-16T02:48:29.848Z,7.43
2022-08-16T02:53:35.155Z,6.95
2022-08-16T02:58:40.294Z,7.53
2022-08-16T03:04:41.057Z,7.75
2022-08-16T03:09:15.001Z,8.07
2022-08-16T03:14:24.583Z,7.13
2022-08-16T03:19:42.194Z,7.53
2022-08-16T03:24:52.194Z,6.93
2022-08-16T03:29:56.916Z,6.77
2022-08-16T03:35:00.284Z,6.95
2022-08-16T03:40:03.968Z,7.00
2022-08-16T03:45:10.341Z,7.20
2022-08-16T03:50:25.896Z,7.18
2022-08-16T03:55:45.099Z,7.10
2022-08-16T04:00:59.303Z,7.30
2022-08-16T04:06:03.065Z,6.97
2022-08-16T04:11:06.857Z,7.45
2022-08-16T04:16:27.161Z,6.72
2022-08-16T04:21:32.484Z,6.65
2022-08-16T04:26:36.312Z,6.40
2022-08-16T04:31:41.027Z,6.82
2022-08-16T04:36:48.908Z,6.43
2022-08-16T04:41:56.915Z,6.13
2022-08-16T04:47:21.633Z,6.65
2022-08-16T04:52:34.166Z,6.35
2022-08-16T04:57:39.389Z,6.82
2022-08-16T05:02:46.966Z,6.35
2022-08-16T05:08:00.221Z,6.18
2022-08-16T05:13:05.866Z,5.72
2022-08-16T05:18:15.790Z,6.20
2022-08-16T05:23:21.100Z,5.82
2022-08-16T05:28:37.366Z,6.18
2022-08-16T05:33:42.517Z,6.00
2022-08-16T05:38:46.950Z,6.13
2022-08-16T05:43:50.539Z,5.85
2022-08-16T05:49:05.801Z,5.88
2022-08-16T05:54:17.429Z,6.18
2022-08-16T05:59:28.460Z,6.00
2022-08-16T06:04:36.507Z,6.03
2022-08-16T06:09:43.759Z,6.00
2022-08-16T06:14:47.906Z,5.80
2022-08-16T06:19:56.258Z,5.97
2022-08-16T06:24:59.640Z,5.90
2022-08-16T06:30:04.087Z,5.80
2022-08-16T06:35:11.900Z,5.85
2022-08-16T06:40:16.053Z,5.78
2022-08-16T06:45:19.708Z,5.40
2022-08-16T06:50:28.680Z,5.38
2022-08-16T06:55:34.819Z,5.47
2022-08-16T07:00:43.035Z,5.22
2022-08-16T07:05:48.132Z,4.97
2022-08-16T07:10:53.220Z,5.28
2022-08-16T07:15:56.910Z,5.32
2022-08-16T07:21:02.324Z,4.93
2022-08-16T07:26:08.864Z,4.95
2022-08-16T07:31:14.349Z,4.82
2022-08-16T07:36:22.181Z,4.70
2022-08-16T07:41:25.698Z,4.97
2022-08-16T07:46:38.471Z,5.00
2022-08-16T07:51:45.043Z,4.50
2022-08-16T07:56:48.487Z,3.90
2022-08-16T08:01:53.304Z,3.95
2022-08-16T08:06:58.130Z,4.18
2022-08-16T08:12:05.578Z,4.45
2022-08-16T08:17:09.353Z,4.10
2022-08-16T08:22:19.257Z,4.10
2022-08-16T08:27:25.994Z,3.45
2022-08-16T08:33:01.823Z,3.72
2022-08-16T08:37:56.399Z,3.70
2022-08-16T08:43:11.968Z,3.67
2022-08-16T08:48:34.927Z,4.00
2022-08-16T08:53:40.539Z,4.20
2022-08-16T08:58:54.846Z,4.28
2022-08-16T09:04:04.845Z,3.70
2022-08-16T09:09:16.863Z,3.85
2022-08-16T09:14:23.886Z,3.40
2022-08-16T09:19:32.212Z,3.80
2022-08-16T09:24:52.607Z,3.90
2022-08-16T09:29:59.845Z,4.20
2022-08-16T09:35:06.719Z,3.70
2022-08-16T09:40:31.863Z,4.20
2022-08-16T09:45:39.241Z,4.25
2022-08-16T09:50:44.587Z,4.22
2022-08-16T09:55:51.255Z,4.30
2022-08-16T10:00:54.920Z,4.20
2022-08-16T10:06:00.178Z,4.40
2022-08-16T10:11:24.622Z,4.25
2022-08-16T10:16:28.496Z,4.10
2022-08-16T10:21:33.321Z,5.13
2022-08-16T10:27:17.190Z,4.20
2022-08-16T10:32:03.518Z,4.50
2022-08-16T10:37:07.162Z,4.38
2022-08-16T10:42:14.365Z,4.32
2022-08-16T10:47:17.895Z,4.20
2022-08-16T10:52:21.299Z,4.30
2022-08-16T10:57:32.851Z,4.10
2022-08-16T11:02:57.879Z,4.57
2022-08-16T11:08:00.549Z,4.78
2022-08-16T11:13:57.267Z,4.30
2022-08-16T11:18:48.187Z,4.35
2022-08-16T11:24:01.421Z,4.30
2022-08-16T11:29:15.275Z,4.72
2022-08-16T11:34:19.765Z,4.10
2022-08-16T11:39:24.632Z,4.72
2022-08-16T11:44:52.519Z,4.70
2022-08-16T11:49:53.318Z,4.68
2022-08-16T11:54:57.218Z,4.80
2022-08-16T12:00:08.118Z,4.82
2022-08-16T12:05:32.230Z,4.90
2022-08-16T12:10:37.696Z,5.55
2022-08-16T12:15:43.927Z,4.55
2022-08-16T12:20:51.122Z,4.20
2022-08-16T12:25:58.814Z,3.85
2022-08-16T12:31:04.635Z,4.03
2022-08-16T12:36:09.927Z,4.80
2022-08-16T12:41:19.096Z,4.55
2022-08-16T12:46:30.912Z,3.95
2022-08-16T12:51:58.208Z,4.20
2022-08-16T12:57:02.524Z,4.07
2022-08-16T13:02:07.834Z,4.13
2022-08-16T13:07:16.359Z,3.95
2022-08-16T13:12:23.812Z,4.57
2022-08-16T13:17:30.486Z,4.22
2022-08-16T13:22:33.909Z,4.30
2022-08-16T13:28:01.681Z,4.15
2022-08-16T13:38:21.622Z,4.40
2022-08-16T13:43:32.590Z,4.60
2022-08-16T13:48:43.977Z,4.30
2022-08-16T13:53:59.524Z,4.00
2022-08-16T13:59:19.133Z,4.85
2022-08-16T14:04:26.583Z,4.45
2022-08-16T14:09:32.326Z,3.88
2022-08-16T14:14:37.481Z,4.63
2022-08-16T14:19:44.886Z,4.60
2022-08-16T14:24:50.573Z,4.60
2022-08-16T14:29:55.388Z,4.40
2022-08-16T14:35:02.029Z,3.90
2022-08-16T14:40:09.664Z,4.30
2022-08-16T14:45:16.095Z,4.60
2022-08-16T14:50:24.033Z,4.95
2022-08-16T14:55:31.965Z,4.40
2022-08-16T15:00:36.769Z,4.30
2022-08-16T15:05:42.548Z,4.95
2022-08-16T15:10:46.383Z,5.28
2022-08-16T15:15:58.784Z,4.75
2022-08-16T15:21:08.422Z,4.53
2022-08-16T15:26:21.547Z,4.65
2022-08-16T15:31:37.395Z,5.45
2022-08-16T15:36:42.998Z,5.18
2022-08-16T15:42:01.162Z,5.10
2022-08-16T15:47:08.042Z,5.07
2022-08-16T15:52:18.338Z,5.70
2022-08-16T15:57:24.281Z,5.57
2022-08-16T16:02:30.912Z,5.18
2022-08-16T16:07:40.633Z,6.13
2022-08-16T16:12:58.126Z,5.53
2022-08-16T16:18:09.599Z,6.07
2022-08-16T16:23:17.750Z,6.40
2022-08-16T16:28:46.349Z,6.07
2022-08-16T16:33:50.325Z,6.35
2022-08-16T16:38:56.045Z,6.22
2022-08-16T16:44:01.403Z,6.65
2022-08-16T16:49:07.631Z,6.60
2022-08-16T16:54:13.011Z,6.70
2022-08-16T16:59:18.773Z,7.38
2022-08-16T17:04:31.587Z,7.43
2022-08-16T17:09:40.231Z,6.95
2022-08-16T17:14:44.136Z,7.00
2022-08-16T17:19:49.580Z,6.88
2022-08-16T17:24:54.899Z,7.90
2022-08-16T17:29:58.736Z,8.70
2022-08-16T17:35:10.192Z,8.65
2022-08-16T17:40:25.507Z,9.63
2022-08-16T17:45:41.011Z,9.98
2022-08-16T17:50:46.089Z,10.00
2022-08-16T17:55:51.829Z,10.45
2022-08-16T18:00:57.526Z,10.20
2022-08-16T18:06:00.957Z,10.20
2022-08-16T18:11:06.003Z,11.10
2022-08-16T18:16:11.637Z,11.15
2022-08-16T18:21:34.037Z,9.95
2022-08-16T18:26:39.677Z,10.90
2022-08-16T18:31:43.386Z,12.93
2022-08-16T18:36:46.700Z,14.18
2022-08-16T18:41:51.696Z,14.13
2022-08-16T18:46:55.097Z,10.82
2022-08-16T18:51:59.224Z,12.80
2022-08-16T18:57:07.887Z,13.63
2022-08-16T19:02:57.644Z,11.60
2022-08-16T19:07:34.876Z,13.00
2022-08-16T19:12:42.215Z,13.93
2022-08-16T19:17:46.717Z,13.43
2022-08-16T19:23:10.457Z,13.98
2022-08-16T19:28:49.708Z,14.60
2022-08-16T19:33:39.734Z,15.25
2022-08-16T19:43:49.190Z,15.73
2022-08-16T19:48:52.561Z,15.23
2022-08-16T19:53:55.877Z,15.80
2022-08-16T20:04:25.935Z,16.05
2022-08-16T20:09:30.108Z,16.02
2022-08-16T20:14:34.883Z,16.80
2022-08-16T20:19:40.545Z,15.25
2022-08-16T20:24:44.792Z,16.10
2022-08-16T20:34:55.671Z,16.42
2022-08-16T20:40:28.307Z,16.33
2022-08-16T20:45:27.075Z,16.90
2022-08-16T20:50:31.528Z,16.90
2022-08-16T20:55:36.148Z,17.55
2022-08-16T21:00:41.334Z,17.25
2022-08-16T21:05:45.458Z,16.98
2022-08-16T21:10:50.143Z,17.73
2022-08-16T21:21:01.641Z,16.23
2022-08-16T21:26:10.866Z,17.27
2022-08-16T21:31:40.887Z,16.92
2022-08-16T21:36:44.430Z,16.17
2022-08-16T21:42:01.259Z,17.27
2022-08-16T21:47:10.129Z,17.80
2022-08-16T21:52:26.195Z,17.13
2022-08-16T21:57:38.305Z,17.02
2022-08-16T22:02:45.611Z,16.90
2022-08-16T22:08:05.552Z,16.35
2022-08-16T22:13:18.454Z,16.73
2022-08-16T22:18:23.793Z,15.80
2022-08-16T22:23:32.062Z,15.98
2022-08-16T22:28:35.895Z,16.95
2022-08-16T22:33:47.468Z,16.73
2022-08-16T22:38:55.844Z,16.40
2022-08-16T22:44:01.173Z,16.35
2022-08-16T22:49:19.537Z,16.40
2022-08-16T22:54:41.486Z,15.52
2022-08-16T22:59:47.252Z,15.02
2022-08-16T23:04:58.566Z,15.45
2022-08-16T23:10:05.694Z,15.73
2022-08-16T23:15:14.028Z,15.27
2022-08-16T23:20:24.255Z,15.70
2022-08-16T23:25:30.502Z,14.55
2022-08-16T23:30:40.515Z,14.60
2022-08-16T23:35:48.261Z,14.10
2022-08-16T23:40:52.151Z,14.80
2022-08-16T23:46:04.021Z,15.65
2022-08-16T23:51:16.417Z,15.13
2022-08-16T23:56:21.676Z,14.25
